BAW31 EGCC-EGLL
Flight info
| Callsign | BAW31 |
|---|---|
| Flight time | 0h 39m |
| Altitude | 17000 |
| Route | LISTO L612 HON |
| Aircraft | B77W/H-SDE2E3FGHIJ5LORVWXY/LB1D1 |
Departure
| Time | 2026-05-05 21:23 |
|---|---|
| Airport | Manchester Airport (EGCC) |
Arrival
| Time | 2026-05-05 22:02 |
|---|---|
| Airport | London Heathrow Airport (EGLL) |
| Time | Latitude | Longitude | Altitude | Speed | Heading |
|---|---|---|---|---|---|
| 2026-05-05 20:18 | 53.36706 | -2.28829 | 238 ft | 0 kts | 315° |
| 2026-05-05 20:52 | 53.36702 | -2.28820 | 238 ft | 2 kts | 314° |
| 2026-05-05 20:53 | 53.36691 | -2.28802 | 238 ft | 2 kts | 314° |
| 2026-05-05 20:53 | 53.36681 | -2.28784 | 238 ft | 2 kts | 314° |
| 2026-05-05 20:53 | 53.36670 | -2.28766 | 238 ft | 2 kts | 314° |
| 2026-05-05 20:53 | 53.36662 | -2.28746 | 238 ft | 2 kts | 279° |
| 2026-05-05 20:54 | 53.36663 | -2.28721 | 238 ft | 2 kts | 248° |
| 2026-05-05 20:54 | 53.36671 | -2.28701 | 238 ft | 2 kts | 222° |
| 2026-05-05 20:54 | 53.36682 | -2.28684 | 238 ft | 1 kts | 222° |
| 2026-05-05 20:54 | 53.36685 | -2.28680 | 238 ft | 0 kts | 223° |
| 2026-05-05 21:02 | 53.36685 | -2.28681 | 238 ft | 0 kts | 223° |
| 2026-05-05 21:05 | 53.36684 | -2.28681 | 238 ft | 0 kts | 223° |
| 2026-05-05 21:07 | 53.36684 | -2.28682 | 238 ft | 0 kts | 223° |
| 2026-05-05 21:07 | 53.36679 | -2.28690 | 238 ft | 2 kts | 223° |
| 2026-05-05 21:07 | 53.36655 | -2.28729 | 238 ft | 6 kts | 224° |
| 2026-05-05 21:08 | 53.36604 | -2.28765 | 238 ft | 10 kts | 164° |
| 2026-05-05 21:08 | 53.36550 | -2.28667 | 238 ft | 12 kts | 133° |
| 2026-05-05 21:08 | 53.36484 | -2.28553 | 238 ft | 14 kts | 134° |
| 2026-05-05 21:08 | 53.36407 | -2.28422 | 238 ft | 16 kts | 134° |
| 2026-05-05 21:09 | 53.36324 | -2.28283 | 238 ft | 15 kts | 135° |
| 2026-05-05 21:09 | 53.36255 | -2.28166 | 238 ft | 12 kts | 135° |
| 2026-05-05 21:09 | 53.36202 | -2.28078 | 238 ft | 9 kts | 135° |
| 2026-05-05 21:09 | 53.36153 | -2.27998 | 238 ft | 10 kts | 136° |
| 2026-05-05 21:10 | 53.36100 | -2.27913 | 238 ft | 11 kts | 136° |
| 2026-05-05 21:10 | 53.36030 | -2.27840 | 238 ft | 12 kts | 172° |
| 2026-05-05 21:10 | 53.35935 | -2.27843 | 238 ft | 14 kts | 186° |
| 2026-05-05 21:10 | 53.35828 | -2.27862 | 238 ft | 16 kts | 185° |
| 2026-05-05 21:11 | 53.35707 | -2.27882 | 238 ft | 19 kts | 186° |
| 2026-05-05 21:11 | 53.35567 | -2.27906 | 238 ft | 19 kts | 187° |
| 2026-05-05 21:11 | 53.35439 | -2.27960 | 238 ft | 18 kts | 213° |
| 2026-05-05 21:11 | 53.35344 | -2.28103 | 238 ft | 18 kts | 225° |
| 2026-05-05 21:12 | 53.35273 | -2.28229 | 238 ft | 11 kts | 229° |
| 2026-05-05 21:12 | 53.35222 | -2.28333 | 238 ft | 9 kts | 229° |
| 2026-05-05 21:12 | 53.35192 | -2.28391 | 238 ft | 5 kts | 229° |
| 2026-05-05 21:12 | 53.35148 | -2.28478 | 238 ft | 12 kts | 230° |
| 2026-05-05 21:13 | 53.35091 | -2.28592 | 238 ft | 12 kts | 230° |
| 2026-05-05 21:13 | 53.35033 | -2.28707 | 238 ft | 13 kts | 229° |
| 2026-05-05 21:13 | 53.34982 | -2.28797 | 238 ft | 8 kts | 226° |
| 2026-05-05 21:13 | 53.34939 | -2.28873 | 238 ft | 9 kts | 227° |
| 2026-05-05 21:14 | 53.34905 | -2.28933 | 238 ft | 0 kts | 226° |
| 2026-05-05 21:14 | 53.34904 | -2.28936 | 238 ft | 0 kts | 226° |
| 2026-05-05 21:14 | 53.34901 | -2.28940 | 238 ft | 1 kts | 226° |
| 2026-05-05 21:15 | 53.34901 | -2.28941 | 238 ft | 0 kts | 226° |
| 2026-05-05 21:19 | 53.34898 | -2.28946 | 238 ft | 1 kts | 226° |
| 2026-05-05 21:19 | 53.34889 | -2.28961 | 238 ft | 2 kts | 227° |
| 2026-05-05 21:19 | 53.34870 | -2.28994 | 238 ft | 5 kts | 224° |
| 2026-05-05 21:20 | 53.34838 | -2.29036 | 238 ft | 6 kts | 212° |
| 2026-05-05 21:20 | 53.34831 | -2.29043 | 238 ft | 0 kts | 208° |
| 2026-05-05 21:20 | 53.34827 | -2.29047 | 238 ft | 3 kts | 207° |
| 2026-05-05 21:21 | 53.34786 | -2.29068 | 238 ft | 7 kts | 189° |
| 2026-05-05 21:21 | 53.34732 | -2.29061 | 238 ft | 6 kts | 164° |
| 2026-05-05 21:21 | 53.34692 | -2.29025 | 238 ft | 6 kts | 141° |
| 2026-05-05 21:21 | 53.34674 | -2.28959 | 238 ft | 6 kts | 86° |
| 2026-05-05 21:22 | 53.34684 | -2.28917 | 238 ft | 0 kts | 50° |
| 2026-05-05 21:22 | 53.34693 | -2.28900 | 238 ft | 12 kts | 51° |
| 2026-05-05 21:23 | 53.34990 | -2.28287 | 238 ft | 125 kts | 51° |
| 2026-05-05 21:23 | 53.35669 | -2.26831 | 868 ft | 179 kts | 53° |
| 2026-05-05 21:23 | 53.36371 | -2.25288 | 2470 ft | 165 kts | 51° |
| 2026-05-05 21:23 | 53.37018 | -2.24059 | 3718 ft | 137 kts | 50° |
| 2026-05-05 21:24 | 53.37492 | -2.22841 | 4498 ft | 128 kts | 78° |
| 2026-05-05 21:24 | 53.37464 | -2.21197 | 5022 ft | 166 kts | 98° |
| 2026-05-05 21:24 | 53.37008 | -2.19033 | 5284 ft | 230 kts | 119° |
| 2026-05-05 21:24 | 53.35847 | -2.17033 | 6052 ft | 253 kts | 147° |
| 2026-05-05 21:25 | 53.34191 | -2.15959 | 6879 ft | 269 kts | 172° |
| 2026-05-05 21:25 | 53.32289 | -2.16156 | 7723 ft | 282 kts | 198° |
| 2026-05-05 21:25 | 53.30416 | -2.17044 | 8729 ft | 288 kts | 194° |
| 2026-05-05 21:25 | 53.28437 | -2.17623 | 9724 ft | 295 kts | 189° |
| 2026-05-05 21:26 | 53.26383 | -2.18016 | 10660 ft | 304 kts | 188° |
| 2026-05-05 21:26 | 53.24266 | -2.18362 | 11377 ft | 320 kts | 187° |
| 2026-05-05 21:26 | 53.21992 | -2.18720 | 12100 ft | 336 kts | 187° |
| 2026-05-05 21:26 | 53.19611 | -2.19095 | 12835 ft | 352 kts | 187° |
| 2026-05-05 21:27 | 53.17081 | -2.19489 | 13605 ft | 366 kts | 186° |
| 2026-05-05 21:27 | 53.14542 | -2.19370 | 14506 ft | 375 kts | 174° |
| 2026-05-05 21:27 | 53.11971 | -2.18341 | 15490 ft | 382 kts | 162° |
| 2026-05-05 21:27 | 53.09537 | -2.16703 | 16747 ft | 379 kts | 159° |
| 2026-05-05 21:28 | 53.07147 | -2.15019 | 18032 ft | 374 kts | 159° |
| 2026-05-05 21:28 | 53.04782 | -2.13361 | 18961 ft | 377 kts | 160° |
| 2026-05-05 21:28 | 53.02341 | -2.11663 | 19787 ft | 384 kts | 160° |
| 2026-05-05 21:28 | 52.99877 | -2.09957 | 20661 ft | 388 kts | 160° |
| 2026-05-05 21:29 | 52.97396 | -2.08245 | 21524 ft | 392 kts | 160° |
| 2026-05-05 21:29 | 52.94866 | -2.06502 | 22319 ft | 398 kts | 160° |
| 2026-05-05 21:29 | 52.92306 | -2.04742 | 23102 ft | 402 kts | 160° |
| 2026-05-05 21:29 | 52.89728 | -2.02973 | 23847 ft | 407 kts | 160° |
| 2026-05-05 21:30 | 52.87078 | -2.01157 | 24612 ft | 411 kts | 160° |
| 2026-05-05 21:30 | 52.84461 | -1.99366 | 24987 ft | 412 kts | 160° |
| 2026-05-05 21:30 | 52.81795 | -1.97543 | 25016 ft | 409 kts | 160° |
| 2026-05-05 21:30 | 52.79203 | -1.95772 | 25021 ft | 407 kts | 160° |
| 2026-05-05 21:31 | 52.76588 | -1.93989 | 25018 ft | 406 kts | 160° |
| 2026-05-05 21:31 | 52.74863 | -1.92815 | 25019 ft | 406 kts | 160° |
| 2026-05-05 21:31 | 52.71370 | -1.90440 | 25022 ft | 406 kts | 160° |
| 2026-05-05 21:31 | 52.68771 | -1.88676 | 25021 ft | 406 kts | 160° |
| 2026-05-05 21:32 | 52.66147 | -1.86896 | 25019 ft | 405 kts | 160° |
| 2026-05-05 21:32 | 52.63513 | -1.85113 | 25020 ft | 406 kts | 160° |
| 2026-05-05 21:32 | 52.60916 | -1.83357 | 25021 ft | 406 kts | 160° |
| 2026-05-05 21:32 | 52.58310 | -1.81598 | 25024 ft | 406 kts | 160° |
| 2026-05-05 21:33 | 52.55707 | -1.79842 | 25025 ft | 406 kts | 160° |
| 2026-05-05 21:33 | 52.53088 | -1.78077 | 25025 ft | 406 kts | 160° |
| 2026-05-05 21:33 | 52.50498 | -1.76336 | 25022 ft | 406 kts | 160° |
| 2026-05-05 21:33 | 52.47884 | -1.74580 | 25022 ft | 406 kts | 160° |
| 2026-05-05 21:34 | 52.45273 | -1.72827 | 24919 ft | 401 kts | 160° |
| 2026-05-05 21:34 | 52.42714 | -1.71113 | 23994 ft | 408 kts | 160° |
| 2026-05-05 21:34 | 52.40040 | -1.69327 | 22649 ft | 423 kts | 160° |
| 2026-05-05 21:34 | 52.37309 | -1.67462 | 21304 ft | 436 kts | 156° |
| 2026-05-05 21:35 | 52.34645 | -1.64953 | 19959 ft | 448 kts | 146° |
| 2026-05-05 21:35 | 52.32240 | -1.61817 | 18563 ft | 444 kts | 140° |
| 2026-05-05 21:35 | 52.29987 | -1.58582 | 17649 ft | 428 kts | 140° |
| 2026-05-05 21:35 | 52.27805 | -1.55450 | 16943 ft | 409 kts | 140° |
| 2026-05-05 21:36 | 52.25713 | -1.52462 | 16339 ft | 390 kts | 140° |
| 2026-05-05 21:36 | 52.23734 | -1.49648 | 15839 ft | 372 kts | 140° |
| 2026-05-05 21:36 | 52.21818 | -1.46930 | 15352 ft | 357 kts | 140° |
| 2026-05-05 21:36 | 52.19979 | -1.44329 | 15070 ft | 355 kts | 140° |
| 2026-05-05 21:37 | 52.18103 | -1.41690 | 15010 ft | 354 kts | 140° |
| 2026-05-05 21:37 | 52.16230 | -1.39068 | 15001 ft | 354 kts | 140° |
| 2026-05-05 21:37 | 52.14365 | -1.36462 | 15013 ft | 355 kts | 140° |
| 2026-05-05 21:37 | 52.12505 | -1.33870 | 15009 ft | 355 kts | 141° |
| 2026-05-05 21:38 | 52.10615 | -1.31238 | 15001 ft | 354 kts | 141° |
| 2026-05-05 21:38 | 52.08757 | -1.28655 | 15012 ft | 353 kts | 140° |
| 2026-05-05 21:38 | 52.07078 | -1.25804 | 14665 ft | 348 kts | 131° |
| 2026-05-05 21:38 | 52.05571 | -1.22733 | 13994 ft | 351 kts | 129° |
| 2026-05-05 21:39 | 52.04085 | -1.19661 | 13465 ft | 350 kts | 129° |
| 2026-05-05 21:39 | 52.02588 | -1.16566 | 13021 ft | 346 kts | 129° |
| 2026-05-05 21:39 | 52.01108 | -1.13507 | 12521 ft | 343 kts | 129° |
| 2026-05-05 21:39 | 51.99658 | -1.10516 | 12044 ft | 341 kts | 129° |
| 2026-05-05 21:40 | 51.98201 | -1.07513 | 11542 ft | 338 kts | 128° |
| 2026-05-05 21:40 | 51.96752 | -1.04530 | 11112 ft | 335 kts | 128° |
| 2026-05-05 21:40 | 51.95321 | -1.01584 | 10531 ft | 333 kts | 128° |
| 2026-05-05 21:40 | 51.93897 | -0.98657 | 9943 ft | 330 kts | 128° |
| 2026-05-05 21:41 | 51.92493 | -0.95771 | 9641 ft | 317 kts | 128° |
| 2026-05-05 21:41 | 51.91165 | -0.93042 | 9569 ft | 300 kts | 127° |
| 2026-05-05 21:41 | 51.89912 | -0.90472 | 9465 ft | 285 kts | 127° |
| 2026-05-05 21:41 | 51.88703 | -0.87994 | 9169 ft | 279 kts | 127° |
| 2026-05-05 21:42 | 51.87505 | -0.85542 | 8743 ft | 278 kts | 127° |
| 2026-05-05 21:42 | 51.86325 | -0.83125 | 8359 ft | 276 kts | 127° |
| 2026-05-05 21:42 | 51.85137 | -0.80694 | 7937 ft | 273 kts | 127° |
| 2026-05-05 21:42 | 51.83961 | -0.78287 | 7536 ft | 271 kts | 127° |
| 2026-05-05 21:43 | 51.82811 | -0.75935 | 7082 ft | 267 kts | 127° |
| 2026-05-05 21:43 | 51.81661 | -0.73581 | 6983 ft | 269 kts | 127° |
| 2026-05-05 21:43 | 51.80518 | -0.71243 | 6950 ft | 267 kts | 127° |
| 2026-05-05 21:43 | 51.79367 | -0.68885 | 6966 ft | 268 kts | 127° |
| 2026-05-05 21:44 | 51.78211 | -0.66519 | 6972 ft | 267 kts | 127° |
| 2026-05-05 21:44 | 51.77053 | -0.64145 | 6952 ft | 264 kts | 127° |
| 2026-05-05 21:44 | 51.75950 | -0.61884 | 6940 ft | 252 kts | 127° |
| 2026-05-05 21:44 | 51.74881 | -0.59686 | 6957 ft | 249 kts | 126° |
| 2026-05-05 21:45 | 51.73822 | -0.57498 | 6952 ft | 247 kts | 126° |
| 2026-05-05 21:45 | 51.72768 | -0.55310 | 6946 ft | 247 kts | 128° |
| 2026-05-05 21:45 | 51.71435 | -0.53577 | 6931 ft | 250 kts | 156° |
| 2026-05-05 21:45 | 51.69725 | -0.53097 | 6936 ft | 252 kts | 187° |
| 2026-05-05 21:46 | 51.68095 | -0.54032 | 6954 ft | 251 kts | 217° |
| 2026-05-05 21:46 | 51.66970 | -0.56103 | 6987 ft | 247 kts | 247° |
| 2026-05-05 21:46 | 51.66613 | -0.58764 | 6960 ft | 241 kts | 277° |
| 2026-05-05 21:46 | 51.67085 | -0.61314 | 6981 ft | 237 kts | 304° |
| 2026-05-05 21:47 | 51.68062 | -0.63449 | 6984 ft | 236 kts | 311° |
| 2026-05-05 21:47 | 51.69087 | -0.65508 | 6949 ft | 236 kts | 311° |
| 2026-05-05 21:47 | 51.70112 | -0.67597 | 6950 ft | 237 kts | 310° |
| 2026-05-05 21:47 | 51.71135 | -0.69699 | 6949 ft | 236 kts | 310° |
| 2026-05-05 21:48 | 51.72137 | -0.71765 | 6948 ft | 236 kts | 310° |
| 2026-05-05 21:48 | 51.73147 | -0.73851 | 6953 ft | 236 kts | 310° |
| 2026-05-05 21:48 | 51.74222 | -0.75861 | 6931 ft | 234 kts | 323° |
| 2026-05-05 21:48 | 51.75652 | -0.77006 | 6960 ft | 233 kts | 349° |
| 2026-05-05 21:49 | 51.77262 | -0.76967 | 6969 ft | 232 kts | 15° |
| 2026-05-05 21:49 | 51.78666 | -0.75762 | 6960 ft | 233 kts | 41° |
| 2026-05-05 21:49 | 51.79597 | -0.73593 | 6934 ft | 237 kts | 68° |
| 2026-05-05 21:49 | 51.79800 | -0.70987 | 6954 ft | 242 kts | 96° |
| 2026-05-05 21:50 | 51.79198 | -0.68437 | 6972 ft | 246 kts | 123° |
| 2026-05-05 21:50 | 51.78131 | -0.66242 | 6979 ft | 247 kts | 128° |
| 2026-05-05 21:50 | 51.77047 | -0.64094 | 6954 ft | 246 kts | 127° |
| 2026-05-05 21:50 | 51.75988 | -0.61939 | 6946 ft | 246 kts | 126° |
| 2026-05-05 21:51 | 51.74938 | -0.59782 | 6962 ft | 246 kts | 126° |
| 2026-05-05 21:51 | 51.73884 | -0.57610 | 6956 ft | 246 kts | 126° |
| 2026-05-05 21:51 | 51.72830 | -0.55461 | 6950 ft | 246 kts | 130° |
| 2026-05-05 21:51 | 51.71429 | -0.53885 | 6933 ft | 249 kts | 161° |
| 2026-05-05 21:52 | 51.67971 | -0.53875 | 6950 ft | 251 kts | 186° |
| 2026-05-05 21:52 | 51.66223 | -0.54185 | 6989 ft | 252 kts | 187° |
| 2026-05-05 21:52 | 51.64486 | -0.54485 | 6925 ft | 251 kts | 186° |
| 2026-05-05 21:53 | 51.62749 | -0.54855 | 6951 ft | 253 kts | 198° |
| 2026-05-05 21:53 | 51.61252 | -0.56205 | 6959 ft | 251 kts | 225° |
| 2026-05-05 21:53 | 51.60276 | -0.58497 | 6960 ft | 248 kts | 252° |
| 2026-05-05 21:53 | 51.60004 | -0.61195 | 6964 ft | 243 kts | 271° |
| 2026-05-05 21:54 | 51.59972 | -0.63940 | 6952 ft | 244 kts | 271° |
| 2026-05-05 21:54 | 51.59869 | -0.66609 | 6901 ft | 238 kts | 268° |
| 2026-05-05 21:54 | 51.59713 | -0.69201 | 6715 ft | 229 kts | 267° |
| 2026-05-05 21:54 | 51.59557 | -0.71691 | 6426 ft | 219 kts | 268° |
| 2026-05-05 21:55 | 51.59408 | -0.74059 | 6215 ft | 208 kts | 268° |
| 2026-05-05 21:55 | 51.59256 | -0.76301 | 6039 ft | 201 kts | 262° |
| 2026-05-05 21:55 | 51.58690 | -0.78369 | 5752 ft | 201 kts | 236° |
| 2026-05-05 21:55 | 51.57708 | -0.79945 | 5497 ft | 205 kts | 214° |
| 2026-05-05 21:56 | 51.56406 | -0.80898 | 5202 ft | 206 kts | 193° |
| 2026-05-05 21:56 | 51.55004 | -0.81041 | 4891 ft | 203 kts | 168° |
| 2026-05-05 21:56 | 51.53747 | -0.80121 | 4547 ft | 198 kts | 144° |
| 2026-05-05 21:56 | 51.52483 | -0.79339 | 4332 ft | 197 kts | 174° |
| 2026-05-05 21:57 | 51.51120 | -0.79300 | 4038 ft | 198 kts | 178° |
| 2026-05-05 21:57 | 51.49774 | -0.78895 | 3746 ft | 196 kts | 153° |
| 2026-05-05 21:57 | 51.48665 | -0.77713 | 3474 ft | 191 kts | 131° |
| 2026-05-05 21:57 | 51.47720 | -0.76244 | 3251 ft | 191 kts | 147° |
| 2026-05-05 21:58 | 51.46744 | -0.74905 | 3038 ft | 180 kts | 118° |
| 2026-05-05 21:58 | 51.46384 | -0.73005 | 2915 ft | 175 kts | 78° |
| 2026-05-05 21:58 | 51.46646 | -0.71112 | 3023 ft | 176 kts | 73° |
| 2026-05-05 21:58 | 51.46956 | -0.69193 | 2743 ft | 180 kts | 72° |
| 2026-05-05 21:59 | 51.47259 | -0.67309 | 2471 ft | 167 kts | 72° |
| 2026-05-05 21:59 | 51.47485 | -0.65512 | 2164 ft | 162 kts | 78° |
| 2026-05-05 21:59 | 51.47577 | -0.63740 | 1798 ft | 161 kts | 83° |
| 2026-05-05 21:59 | 51.47639 | -0.62013 | 1591 ft | 153 kts | 80° |
| 2026-05-05 22:00 | 51.47725 | -0.60344 | 1388 ft | 150 kts | 84° |
| 2026-05-05 22:00 | 51.47701 | -0.58687 | 1231 ft | 148 kts | 84° |
| 2026-05-05 22:00 | 51.47726 | -0.57051 | 1059 ft | 148 kts | 84° |
| 2026-05-05 22:00 | 51.47723 | -0.55383 | 853 ft | 151 kts | 86° |
| 2026-05-05 22:01 | 51.47730 | -0.53673 | 696 ft | 153 kts | 85° |
| 2026-05-05 22:01 | 51.47739 | -0.51971 | 516 ft | 153 kts | 86° |
| 2026-05-05 22:01 | 51.47745 | -0.50276 | 328 ft | 152 kts | 86° |
| 2026-05-05 22:01 | 51.47749 | -0.48607 | 157 ft | 147 kts | 87° |
| 2026-05-05 22:02 | 51.47754 | -0.47031 | 95 ft | 133 kts | 88° |
| 2026-05-05 22:02 | 51.47759 | -0.45721 | 89 ft | 89 kts | 88° |
| 2026-05-05 22:02 | 51.47760 | -0.45101 | 97 ft | 22 kts | 91° |
| 2026-05-05 22:02 | 51.47754 | -0.44974 | 97 ft | 14 kts | 99° |
| 2026-05-05 22:03 | 51.47688 | -0.44834 | 97 ft | 16 kts | 143° |
| 2026-05-05 22:03 | 51.47608 | -0.44821 | 98 ft | 12 kts | 250° |
| 2026-05-05 22:03 | 51.47599 | -0.44963 | 98 ft | 13 kts | 268° |
| 2026-05-05 22:03 | 51.47597 | -0.45140 | 97 ft | 18 kts | 269° |